This is the latest recevied weather packets stored in our database for station/object KJ5IIV. If no packets are shown the sender has not sent any weather packets the latest 10 day(s).
| Time | Temp. | Humidity | Pressure | Rain* | Wind** | Luminosity | Snow |
|---|---|---|---|---|---|---|---|
| 1777406444 | 28.33° C | 73% | 1011.2 hPa | 0 mm | - | 421 W/m² | - |
| 1777406144 | 28.33° C | 74% | 1011.2 hPa | 0 mm | - | 405 W/m² | - |
| 1777405839 | 28.33° C | 74% | 1011.3 hPa | 0 mm | - | 374 W/m² | - |
| 1777405536 | 27.78° C | 75% | 1011.2 hPa | 0 mm | - | 371 W/m² | - |
| 1777405234 | 27.78° C | 75% | 1011.2 hPa | 0 mm | - | 262 W/m² | - |
| 1777404932 | 28.33° C | 73% | 1011.7 hPa | 0 mm | - | 138 W/m² | - |
| 1777404628 | 28.33° C | 74% | 1011.6 hPa | 0 mm | - | 312 W/m² | - |
| 1777404324 | 28.89° C | 71% | 1011.4 hPa | 0 mm | - | 389 W/m² | - |
| 1777404021 | 29.44° C | 69% | 1011.8 hPa | 0 mm | - | 390 W/m² | - |
| 1777403716 | 29.44° C | 70% | 1011.8 hPa | 0 mm | - | 664 W/m² | - |
| 1777403415 | 28.89° C | 72% | 1012 hPa | 0 mm | - | 429 W/m² | - |
| 1777403109 | 28.89° C | 72% | 1012 hPa | 0 mm | - | 371 W/m² | - |
| 1777402806 | 28.89° C | 72% | 1012.3 hPa | 0 mm | - | 588 W/m² | - |
| 1777402503 | 28.89° C | 71% | 1012.3 hPa | 0 mm | - | 324 W/m² | - |
| 1777402200 | 28.89° C | 72% | 1012.6 hPa | 0 mm | - | 462 W/m² | - |
| 1777401894 | 28.89° C | 73% | 1012.1 hPa | 0 mm | - | 510 W/m² | - |
| 1777401593 | 28.33° C | 74% | 1012.3 hPa | 0 mm | - | 386 W/m² | - |
| 1777401290 | 28.89° C | 72% | 1012.5 hPa | 0 mm | - | 343 W/m² | - |
| 1777400985 | 28.89° C | 72% | 1012.3 hPa | 0 mm | - | 439 W/m² | - |
| 1777400681 | 28.89° C | 71% | 1012.4 hPa | 0 mm | - | 384 W/m² | - |
| 1777400379 | 29.44° C | 69% | 1012.6 hPa | 0 mm | - | 830 W/m² | - |
| 1777400074 | 29.44° C | 70% | 1012.6 hPa | 0 mm | - | 626 W/m² | - |
| 1777399772 | 29.44° C | 70% | 1012.5 hPa | 0 mm | - | 676 W/m² | - |
| 1777399468 | 28.33° C | 74% | 1012.8 hPa | 0 mm | - | 853 W/m² | - |
| 1777399166 | 28.89° C | 70% | 1012.9 hPa | 0 mm | - | 386 W/m² | - |
* Rain latest hour (hover to see other rain measurements)
** Current wind speed in m/s (hover to see current wind gust speed)